Wetterdaten: Woche 19.09.16 - 25.09.16 (KW38)
Datum Zeit Temp. I. Temp. A. Feuchte I. Feuchte A. Luftdruck Regen Wind Richtung Sonnenschein UV Solar Taupunkt Windchill Windben
19.09.2016 00:00 23,2 C 11,5 C 54 % 96 % 1012,5 hPa 0,0 l/m 0,0 km/h (0 Bft) NW 0,00 h 0,0 UV-I 0 W/m 10,9 C 11,5 C 0,2 km/h (0 Bft)
19.09.2016 01:00 23,2 C 11,5 C 54 % 96 % 1012,5 hPa 0,0 l/m 1,2 km/h (1 Bft) N 0,00 h 0,0 UV-I 0 W/m 10,9 C 11,5 C 3,6 km/h (1 Bft)
19.09.2016 02:00 23,2 C 11,3 C 54 % 96 % 1012,5 hPa 0,0 l/m 1,1 km/h (1 Bft) N-NW 0,00 h 0,0 UV-I 0 W/m 10,7 C 11,3 C 3,9 km/h (1 Bft)
19.09.2016 03:00 23,1 C 11,2 C 53 % 96 % 1012,6 hPa 0,2 l/m 1,3 km/h (1 Bft) N-NW 0,00 h 0,0 UV-I 0 W/m 10,6 C 11,2 C 2,8 km/h (1 Bft)
19.09.2016 04:00 23,1 C 11,2 C 53 % 96 % 1012,8 hPa 0,2 l/m 0,3 km/h (0 Bft) N-NW 0,00 h 0,0 UV-I 0 W/m 10,6 C 11,2 C 1,0 km/h (0 Bft)
19.09.2016 05:00 23,1 C 11,1 C 53 % 96 % 1013,0 hPa 0,0 l/m 0,5 km/h (0 Bft) N-NW 0,00 h 0,0 UV-I 0 W/m 10,6 C 11,1 C 1,7 km/h (1 Bft)
19.09.2016 06:00 23,1 C 11,1 C 53 % 97 % 1013,2 hPa 0,0 l/m 0,4 km/h (0 Bft) N-NW 0,00 h 0,0 UV-I 0 W/m 10,6 C 11,1 C 1,2 km/h (1 Bft)
19.09.2016 07:00 23,1 C 11,0 C 53 % 97 % 1013,5 hPa 0,0 l/m 0,9 km/h (0 Bft) N-NW 0,00 h 0,0 UV-I 7 W/m 10,5 C 11,0 C 2,7 km/h (1 Bft)
19.09.2016 08:00 23,0 C 10,9 C 53 % 97 % 1013,7 hPa 0,0 l/m 1,9 km/h (1 Bft) N 0,00 h 0,0 UV-I 15 W/m 10,4 C 10,9 C 5,6 km/h (1 Bft)
19.09.2016 09:00 23,0 C 11,2 C 53 % 96 % 1014,1 hPa 0,0 l/m 1,4 km/h (1 Bft) N-NW 0,00 h 0,5 UV-I 49 W/m 10,7 C 11,2 C 3,6 km/h (1 Bft)
19.09.2016 10:00 22,9 C 11,6 C 53 % 96 % 1014,8 hPa 0,0 l/m 2,4 km/h (1 Bft) N 0,00 h 0,6 UV-I 63 W/m 10,9 C 11,3 C 5,4 km/h (1 Bft)
19.09.2016 11:00 23,0 C 12,4 C 52 % 93 % 1015,0 hPa 0,0 l/m 2,9 km/h (1 Bft) N 0,67 h 1,4 UV-I 173 W/m 11,3 C 12,2 C 7,1 km/h (2 Bft)
19.09.2016 12:00 23,0 C 12,9 C 52 % 92 % 1015,2 hPa 0,0 l/m 2,2 km/h (1 Bft) N 0,00 h 1,0 UV-I 107 W/m 11,6 C 12,7 C 5,7 km/h (1 Bft)
19.09.2016 13:00 22,9 C 13,0 C 52 % 92 % 1015,4 hPa 0,0 l/m 1,3 km/h (1 Bft) N 0,00 h 0,8 UV-I 88 W/m 11,7 C 13,0 C 3,3 km/h (1 Bft)
19.09.2016 14:00 22,9 C 13,1 C 53 % 92 % 1015,5 hPa 0,0 l/m 1,7 km/h (1 Bft) N-NO 0,00 h 0,8 UV-I 76 W/m 11,7 C 13,0 C 4,6 km/h (1 Bft)
19.09.2016 15:00 22,8 C 13,2 C 53 % 91 % 1015,7 hPa 0,0 l/m 1,2 km/h (1 Bft) N-NW 0,00 h 0,7 UV-I 61 W/m 11,8 C 13,2 C 3,6 km/h (1 Bft)
19.09.2016 16:00 22,8 C 13,2 C 53 % 90 % 1015,8 hPa 0,0 l/m 3,2 km/h (1 Bft) N 0,00 h 0,5 UV-I 66 W/m 11,6 C 12,7 C 7,8 km/h (2 Bft)
19.09.2016 17:00 22,8 C 13,0 C 53 % 90 % 1016,1 hPa 0,0 l/m 1,0 km/h (0 Bft) N-NO 0,00 h 0,6 UV-I 78 W/m 11,4 C 13,0 C 3,2 km/h (1 Bft)
19.09.2016 18:00 22,3 C 12,9 C 52 % 89 % 1016,3 hPa 0,0 l/m 0,0 km/h (0 Bft) N 0,00 h 0,0 UV-I 19 W/m 11,2 C 12,9 C 0,1 km/h (0 Bft)
19.09.2016 19:00 22,1 C 12,6 C 53 % 91 % 1016,6 hPa 0,0 l/m 1,4 km/h (1 Bft) N 0,00 h 0,0 UV-I 0 W/m 11,0 C 12,6 C 3,5 km/h (1 Bft)
19.09.2016 20:00 22,4 C 12,0 C 53 % 92 % 1017,0 hPa 0,0 l/m 1,2 km/h (1 Bft) N-NW 0,00 h 0,0 UV-I 0 W/m 10,7 C 12,0 C 3,0 km/h (1 Bft)
19.09.2016 21:00 22,5 C 11,7 C 53 % 93 % 1017,4 hPa 0,0 l/m 0,7 km/h (0 Bft) N-NW 0,00 h 0,0 UV-I 0 W/m 10,6 C 11,7 C 1,4 km/h (1 Bft)
19.09.2016 22:00 22,6 C 11,7 C 53 % 93 % 1017,4 hPa 0,0 l/m 2,5 km/h (1 Bft) N-NW 0,00 h 0,0 UV-I 0 W/m 10,6 C 11,6 C 5,1 km/h (1 Bft)
19.09.2016 23:00 22,6 C 11,5 C 53 % 93 % 1017,5 hPa 0,0 l/m 1,4 km/h (1 Bft) N-NW 0,00 h 0,0 UV-I 0 W/m 10,4 C 11,5 C 3,1 km/h (1 Bft)
20.09.2016 00:00 22,6 C 10,9 C 52 % 93 % 1017,5 hPa 0,0 l/m 2,1 km/h (1 Bft) N-NW 0,00 h 0,0 UV-I 0 W/m 9,8 C 10,8 C 3,7 km/h (1 Bft)
20.09.2016 01:00 22,6 C 10,2 C 52 % 93 % 1017,7 hPa 0,0 l/m 0,0 km/h (0 Bft) N 0,00 h 0,0 UV-I 0 W/m 9,2 C 10,2 C 0,0 km/h (0 Bft)
20.09.2016 02:00 22,5 C 9,8 C 52 % 94 % 1017,7 hPa 0,0 l/m 0,0 km/h (0 Bft) N 0,00 h 0,0 UV-I 0 W/m 8,9 C 9,8 C 0,0 km/h (0 Bft)
20.09.2016 03:00 22,5 C 8,9 C 52 % 93 % 1017,5 hPa 0,2 l/m 0,0 km/h (0 Bft) N 0,00 h 0,0 UV-I 0 W/m 7,9 C 8,9 C 0,0 km/h (0 Bft)
20.09.2016 04:00 22,5 C 8,2 C 52 % 94 % 1017,4 hPa 0,0 l/m 0,0 km/h (0 Bft) N 0,00 h 0,0 UV-I 0 W/m 7,3 C 8,2 C 0,0 km/h (0 Bft)
20.09.2016 05:00 22,4 C 8,0 C 51 % 95 % 1017,5 hPa 0,0 l/m 0,0 km/h (0 Bft) N 0,00 h 0,0 UV-I 0 W/m 7,2 C 8,0 C 0,0 km/h (0 Bft)
20.09.2016 06:00 22,4 C 7,8 C 51 % 95 % 1017,6 hPa 0,0 l/m 0,0 km/h (0 Bft) N 0,00 h 0,0 UV-I 0 W/m 7,0 C 7,8 C 0,0 km/h (0 Bft)
20.09.2016 07:00 22,4 C 8,2 C 51 % 96 % 1017,9 hPa 0,0 l/m 0,0 km/h (0 Bft) N 0,00 h 0,0 UV-I 18 W/m 7,6 C 8,2 C 0,0 km/h (0 Bft)
20.09.2016 08:00 22,4 C 9,0 C 51 % 97 % 1018,3 hPa 0,0 l/m 0,0 km/h (0 Bft) N 0,00 h 0,0 UV-I 43 W/m 8,5 C 9,0 C 0,0 km/h (0 Bft)
20.09.2016 09:00 22,4 C 9,9 C 51 % 97 % 1018,5 hPa 0,0 l/m 0,0 km/h (0 Bft) N 0,00 h 0,7 UV-I 99 W/m 9,5 C 9,9 C 0,2 km/h (0 Bft)
20.09.2016 10:00 22,4 C 11,4 C 51 % 93 % 1018,7 hPa 0,0 l/m 0,1 km/h (0 Bft) W-NW 0,47 h 1,2 UV-I 169 W/m 10,2 C 11,4 C 0,2 km/h (0 Bft)
20.09.2016 11:00 22,3 C 12,9 C 51 % 84 % 1018,8 hPa 0,0 l/m 1,0 km/h (0 Bft) N 1,00 h 1,9 UV-I 260 W/m 10,2 C 12,9 C 2,3 km/h (1 Bft)
20.09.2016 12:00 22,3 C 14,0 C 50 % 71 % 1018,4 hPa 0,0 l/m 2,1 km/h (1 Bft) N-NO 1,00 h 2,7 UV-I 333 W/m 8,7 C 14,0 C 6,2 km/h (2 Bft)
20.09.2016 13:00 22,3 C 14,8 C 49 % 64 % 1018,1 hPa 0,0 l/m 1,9 km/h (1 Bft) N-NO 1,00 h 2,5 UV-I 364 W/m 8,0 C 14,7 C 4,6 km/h (1 Bft)
20.09.2016 14:00 22,3 C 14,7 C 48 % 64 % 1017,9 hPa 0,0 l/m 2,2 km/h (1 Bft) N-NO 1,00 h 2,1 UV-I 309 W/m 8,0 C 14,7 C 5,6 km/h (1 Bft)
20.09.2016 15:00 22,2 C 14,2 C 48 % 67 % 1017,6 hPa 0,0 l/m 1,8 km/h (1 Bft) N-NO 1,00 h 1,4 UV-I 201 W/m 8,2 C 14,1 C 4,7 km/h (1 Bft)
20.09.2016 16:00 22,2 C 15,0 C 47 % 66 % 1017,5 hPa 0,0 l/m 1,1 km/h (1 Bft) N-NO 0,98 h 1,3 UV-I 355 W/m 8,7 C 15,0 C 3,7 km/h (1 Bft)
20.09.2016 17:00 21,9 C 13,9 C 46 % 69 % 1017,5 hPa 0,0 l/m 0,6 km/h (0 Bft) N-NO 0,12 h 0,6 UV-I 81 W/m 8,3 C 13,9 C 2,2 km/h (1 Bft)
20.09.2016 18:00 21,8 C 13,2 C 47 % 72 % 1017,8 hPa 0,0 l/m 0,0 km/h (0 Bft) N 0,00 h 0,0 UV-I 23 W/m 8,4 C 13,2 C 0,0 km/h (0 Bft)
20.09.2016 19:00 22,0 C 12,8 C 47 % 74 % 1018,2 hPa 0,0 l/m 1,6 km/h (1 Bft) N 0,00 h 0,0 UV-I 0 W/m 8,4 C 12,8 C 3,9 km/h (1 Bft)
20.09.2016 20:00 22,0 C 12,0 C 47 % 78 % 1018,7 hPa 0,0 l/m 2,6 km/h (1 Bft) N 0,00 h 0,0 UV-I 0 W/m 8,3 C 12,0 C 7,1 km/h (2 Bft)
20.09.2016 21:00 22,0 C 11,5 C 47 % 81 % 1019,0 hPa 0,0 l/m 0,2 km/h (0 Bft) N-NO 0,00 h 0,0 UV-I 0 W/m 8,2 C 11,5 C 0,8 km/h (0 Bft)
20.09.2016 22:00 22,0 C 11,1 C 48 % 81 % 1019,3 hPa 0,0 l/m 0,0 km/h (0 Bft) N 0,00 h 0,0 UV-I 0 W/m 7,9 C 11,1 C 0,0 km/h (0 Bft)
20.09.2016 23:00 22,1 C 10,7 C 48 % 81 % 1019,4 hPa 0,0 l/m 0,0 km/h (0 Bft) N 0,00 h 0,0 UV-I 0 W/m 7,6 C 10,7 C 0,0 km/h (0 Bft)
21.09.2016 00:00 22,0 C 9,8 C 48 % 83 % 1019,5 hPa 0,0 l/m 0,0 km/h (0 Bft) N 0,00 h 0,0 UV-I 0 W/m 7,0 C 9,8 C 0,0 km/h (0 Bft)
21.09.2016 01:00 22,0 C 8,5 C 48 % 85 % 1019,4 hPa 0,0 l/m 0,0 km/h (0 Bft) N 0,00 h 0,0 UV-I 0 W/m 6,1 C 8,5 C 0,0 km/h (0 Bft)
21.09.2016 02:00 22,0 C 7,4 C 48 % 88 % 1019,2 hPa 0,0 l/m 0,0 km/h (0 Bft) N 0,00 h 0,0 UV-I 0 W/m 5,5 C 7,4 C 0,0 km/h (0 Bft)
21.09.2016 03:00 21,9 C 6,4 C 47 % 90 % 1019,1 hPa 0,0 l/m 0,0 km/h (0 Bft) N 0,00 h 0,0 UV-I 0 W/m 4,8 C 6,4 C 0,0 km/h (0 Bft)
21.09.2016 04:00 21,9 C 5,6 C 47 % 91 % 1019,1 hPa 0,0 l/m 0,0 km/h (0 Bft) N 0,00 h 0,0 UV-I 0 W/m 4,2 C 5,6 C 0,0 km/h (0 Bft)
21.09.2016 05:00 21,9 C 4,8 C 47 % 92 % 1019,3 hPa 0,0 l/m 0,0 km/h (0 Bft) N 0,00 h 0,0 UV-I 0 W/m 3,6 C 4,8 C 0,0 km/h (0 Bft)
21.09.2016 06:00 21,8 C 4,1 C 47 % 92 % 1019,4 hPa 0,0 l/m 0,0 km/h (0 Bft) N 0,00 h 0,0 UV-I 0 W/m 2,9 C 4,1 C 0,0 km/h (0 Bft)
21.09.2016 07:00 21,8 C 3,7 C 46 % 93 % 1019,5 hPa 0,0 l/m 0,0 km/h (0 Bft) N 0,00 h 0,0 UV-I 17 W/m 2,6 C 3,7 C 0,0 km/h (0 Bft)
21.09.2016 08:00 21,8 C 5,1 C 46 % 95 % 1019,6 hPa 0,0 l/m 0,0 km/h (0 Bft) N 0,63 h 0,6 UV-I 168 W/m 4,4 C 5,1 C 0,0 km/h (0 Bft)
21.09.2016 09:00 21,7 C 9,8 C 46 % 87 % 1019,7 hPa 0,0 l/m 0,1 km/h (0 Bft) W-NW 1,00 h 1,4 UV-I 375 W/m 7,7 C 9,8 C 0,2 km/h (0 Bft)
21.09.2016 10:00 21,8 C 13,5 C 46 % 73 % 1019,9 hPa 0,0 l/m 0,5 km/h (0 Bft) W-NW 1,00 h 2,2 UV-I 461 W/m 8,8 C 13,5 C 1,7 km/h (1 Bft)
21.09.2016 11:00 21,8 C 14,1 C 45 % 64 % 1020,0 hPa 0,0 l/m 0,7 km/h (0 Bft) O-NO 1,00 h 2,2 UV-I 248 W/m 7,4 C 14,1 C 3,0 km/h (1 Bft)
21.09.2016 12:00 21,6 C 14,2 C 44 % 63 % 1019,9 hPa 0,0 l/m 1,1 km/h (1 Bft) SO 1,00 h 2,7 UV-I 352 W/m 7,3 C 14,2 C 3,2 km/h (1 Bft)
21.09.2016 13:00 21,6 C 15,4 C 44 % 60 % 1019,8 hPa 0,0 l/m 2,0 km/h (1 Bft) SO 1,00 h 3,2 UV-I 436 W/m 7,7 C 15,4 C 4,8 km/h (1 Bft)
21.09.2016 14:00 21,6 C 16,2 C 44 % 60 % 1019,7 hPa 0,0 l/m 1,1 km/h (1 Bft) O 1,00 h 3,0 UV-I 499 W/m 8,4 C 16,2 C 3,5 km/h (1 Bft)
21.09.2016 15:00 21,7 C 16,9 C 44 % 58 % 1019,5 hPa 0,0 l/m 1,1 km/h (1 Bft) N-NW 1,00 h 2,2 UV-I 436 W/m 8,7 C 16,9 C 2,6 km/h (1 Bft)
21.09.2016 16:00 21,5 C 16,0 C 45 % 61 % 1019,2 hPa 0,0 l/m 2,9 km/h (1 Bft) N-NO 0,83 h 1,1 UV-I 186 W/m 8,6 C 16,0 C 5,8 km/h (2 Bft)
21.09.2016 17:00 21,6 C 15,2 C 45 % 65 % 1019,2 hPa 0,0 l/m 1,3 km/h (1 Bft) N-NO 0,45 h 0,7 UV-I 131 W/m 8,8 C 15,2 C 3,4 km/h (1 Bft)
21.09.2016 18:00 21,6 C 15,1 C 46 % 67 % 1019,3 hPa 0,0 l/m 1,8 km/h (1 Bft) N-NO 0,00 h 0,0 UV-I 59 W/m 8,9 C 15,1 C 3,9 km/h (1 Bft)
21.09.2016 19:00 21,6 C 13,7 C 46 % 74 % 1019,6 hPa 0,0 l/m 0,0 km/h (0 Bft) N 0,00 h 0,0 UV-I 6 W/m 9,0 C 13,7 C 0,1 km/h (0 Bft)
21.09.2016 20:00 21,7 C 12,6 C 46 % 80 % 1020,1 hPa 0,0 l/m 0,0 km/h (0 Bft) N 0,00 h 0,0 UV-I 0 W/m 9,2 C 12,6 C 0,0 km/h (0 Bft)
21.09.2016 21:00 21,7 C 11,1 C 47 % 84 % 1020,5 hPa 0,0 l/m 0,0 km/h (0 Bft) N 0,00 h 0,0 UV-I 0 W/m 8,5 C 11,1 C 0,0 km/h (0 Bft)
21.09.2016 22:00 21,6 C 9,6 C 47 % 88 % 1020,8 hPa 0,0 l/m 0,0 km/h (0 Bft) N 0,00 h 0,0 UV-I 0 W/m 7,8 C 9,6 C 0,0 km/h (0 Bft)
21.09.2016 23:00 21,6 C 8,4 C 47 % 89 % 1021,0 hPa 0,0 l/m 0,0 km/h (0 Bft) N 0,00 h 0,0 UV-I 0 W/m 6,8 C 8,4 C 0,0 km/h (0 Bft)
22.09.2016 00:00 21,6 C 7,4 C 47 % 90 % 1021,3 hPa 0,0 l/m 0,0 km/h (0 Bft) N 0,00 h 0,0 UV-I 0 W/m 5,9 C 7,4 C 0,0 km/h (0 Bft)
22.09.2016 01:00 21,5 C 6,6 C 47 % 91 % 1021,6 hPa 0,0 l/m 0,0 km/h (0 Bft) N 0,00 h 0,0 UV-I 0 W/m 5,3 C 6,6 C 0,0 km/h (0 Bft)
22.09.2016 02:00 21,5 C 6,2 C 46 % 92 % 1021,7 hPa 0,0 l/m 0,1 km/h (0 Bft) NO 0,00 h 0,0 UV-I 0 W/m 5,0 C 6,2 C 0,5 km/h (0 Bft)
22.09.2016 03:00 21,4 C 5,8 C 46 % 93 % 1021,7 hPa 0,0 l/m 0,0 km/h (0 Bft) N 0,00 h 0,0 UV-I 0 W/m 4,7 C 5,8 C 0,0 km/h (0 Bft)
22.09.2016 04:00 21,5 C 5,9 C 46 % 94 % 1021,8 hPa 0,0 l/m 0,0 km/h (0 Bft) N 0,00 h 0,0 UV-I 0 W/m 5,0 C 5,9 C 0,0 km/h (0 Bft)
22.09.2016 05:00 21,4 C 5,5 C 46 % 94 % 1021,8 hPa 0,0 l/m 0,0 km/h (0 Bft) N 0,00 h 0,0 UV-I 0 W/m 4,6 C 5,5 C 0,0 km/h (0 Bft)
22.09.2016 06:00 21,4 C 5,1 C 46 % 94 % 1021,9 hPa 0,0 l/m 0,0 km/h (0 Bft) N 0,00 h 0,0 UV-I 0 W/m 4,3 C 5,1 C 0,0 km/h (0 Bft)
22.09.2016 14:00 21,6 C 17,5 C 48 % 64 % 1022,4 hPa 0,0 l/m 0,7 km/h (0 Bft) N-NW 0,72 h 2,4 UV-I 408 W/m 10,6 C 17,5 C 2,3 km/h (1 Bft)
22.09.2016 15:00 21,5 C 17,1 C 48 % 62 % 1022,1 hPa 0,0 l/m 1,3 km/h (1 Bft) O-SO 0,67 h 1,8 UV-I 321 W/m 9,8 C 17,1 C 3,4 km/h (1 Bft)
22.09.2016 16:00 21,5 C 17,3 C 47 % 60 % 1021,9 hPa 0,0 l/m 1,4 km/h (1 Bft) SO 0,92 h 1,3 UV-I 326 W/m 9,4 C 17,3 C 3,4 km/h (1 Bft)
22.09.2016 17:00 21,5 C 16,8 C 47 % 59 % 1021,8 hPa 0,0 l/m 0,0 km/h (0 Bft) N 0,38 h 0,6 UV-I 128 W/m 8,7 C 16,8 C 0,2 km/h (0 Bft)
22.09.2016 18:00 21,3 C 16,0 C 47 % 66 % 1021,9 hPa 0,0 l/m 0,2 km/h (0 Bft) SO 0,00 h 0,0 UV-I 48 W/m 9,6 C 16,0 C 0,5 km/h (0 Bft)
22.09.2016 19:00 21,3 C 14,2 C 48 % 76 % 1022,0 hPa 0,0 l/m 0,7 km/h (0 Bft) O-NO 0,00 h 0,0 UV-I 5 W/m 9,9 C 14,2 C 2,3 km/h (1 Bft)
22.09.2016 20:00 21,3 C 12,5 C 48 % 81 % 1022,3 hPa 0,0 l/m 0,2 km/h (0 Bft) NO 0,00 h 0,0 UV-I 0 W/m 9,3 C 12,5 C 0,5 km/h (0 Bft)
22.09.2016 21:00 21,3 C 10,9 C 48 % 85 % 1022,7 hPa 0,0 l/m 0,0 km/h (0 Bft) N 0,00 h 0,0 UV-I 0 W/m 8,5 C 10,9 C 0,0 km/h (0 Bft)
22.09.2016 22:00 21,3 C 9,6 C 48 % 88 % 1022,8 hPa 0,0 l/m 0,0 km/h (0 Bft) N 0,00 h 0,0 UV-I 0 W/m 7,7 C 9,6 C 0,0 km/h (0 Bft)
22.09.2016 23:00 21,3 C 8,7 C 48 % 90 % 1023,0 hPa 0,0 l/m 0,0 km/h (0 Bft) N 0,00 h 0,0 UV-I 0 W/m 7,2 C 8,7 C 0,0 km/h (0 Bft)
23.09.2016 00:00 21,3 C 7,9 C 48 % 91 % 1023,2 hPa 0,0 l/m 0,0 km/h (0 Bft) N 0,00 h 0,0 UV-I 0 W/m 6,5 C 7,9 C 0,0 km/h (0 Bft)
23.09.2016 01:00 21,3 C 7,4 C 48 % 92 % 1023,2 hPa 0,0 l/m 0,0 km/h (0 Bft) N 0,00 h 0,0 UV-I 0 W/m 6,2 C 7,4 C 0,0 km/h (0 Bft)
23.09.2016 02:00 21,2 C 7,0 C 48 % 92 % 1023,3 hPa 0,0 l/m 0,0 km/h (0 Bft) N 0,00 h 0,0 UV-I 0 W/m 5,8 C 7,0 C 0,0 km/h (0 Bft)
23.09.2016 03:00 21,2 C 6,7 C 48 % 93 % 1023,3 hPa 0,0 l/m 0,0 km/h (0 Bft) N 0,00 h 0,0 UV-I 0 W/m 5,6 C 6,7 C 0,0 km/h (0 Bft)
23.09.2016 04:00 21,2 C 6,2 C 47 % 93 % 1023,4 hPa 0,0 l/m 0,0 km/h (0 Bft) N 0,00 h 0,0 UV-I 0 W/m 5,1 C 6,2 C 0,0 km/h (0 Bft)
23.09.2016 05:00 21,2 C 5,9 C 47 % 94 % 1023,4 hPa 0,0 l/m 0,0 km/h (0 Bft) N 0,00 h 0,0 UV-I 0 W/m 5,0 C 5,9 C 0,0 km/h (0 Bft)
23.09.2016 06:00 21,1 C 5,8 C 47 % 94 % 1023,4 hPa 0,0 l/m 0,0 km/h (0 Bft) N 0,00 h 0,0 UV-I 0 W/m 5,0 C 5,8 C 0,0 km/h (0 Bft)
23.09.2016 07:00 21,1 C 6,1 C 47 % 95 % 1023,8 hPa 0,0 l/m 0,0 km/h (0 Bft) N 0,00 h 0,0 UV-I 23 W/m 5,4 C 6,1 C 0,0 km/h (0 Bft)
23.09.2016 08:00 21,1 C 6,9 C 47 % 96 % 1024,3 hPa 0,0 l/m 0,0 km/h (0 Bft) N 0,00 h 0,5 UV-I 70 W/m 6,2 C 6,9 C 0,0 km/h (0 Bft)
23.09.2016 09:00 21,1 C 9,9 C 47 % 92 % 1024,8 hPa 0,0 l/m 0,0 km/h (0 Bft) N 0,72 h 1,0 UV-I 262 W/m 8,7 C 9,9 C 0,0 km/h (0 Bft)
23.09.2016 10:00 21,2 C 14,1 C 47 % 80 % 1025,0 hPa 0,0 l/m 1,5 km/h (1 Bft) SO 1,00 h 2,0 UV-I 458 W/m 10,6 C 14,1 C 3,3 km/h (1 Bft)
23.09.2016 11:00 21,2 C 16,3 C 48 % 71 % 1024,9 hPa 0,0 l/m 2,1 km/h (1 Bft) S 1,00 h 2,5 UV-I 444 W/m 11,0 C 16,3 C 4,4 km/h (1 Bft)
23.09.2016 12:00 21,3 C 18,7 C 48 % 60 % 1024,7 hPa 0,0 l/m 3,3 km/h (1 Bft) S 1,00 h 3,5 UV-I 622 W/m 10,8 C 18,7 C 5,9 km/h (2 Bft)
23.09.2016 13:00 21,3 C 18,5 C 48 % 55 % 1024,7 hPa 0,0 l/m 3,4 km/h (1 Bft) W-SW 0,68 h 2,9 UV-I 449 W/m 9,3 C 18,4 C 6,7 km/h (2 Bft)
23.09.2016 14:00 21,4 C 19,2 C 47 % 52 % 1024,8 hPa 0,0 l/m 3,9 km/h (1 Bft) W-SW 1,00 h 2,6 UV-I 453 W/m 9,0 C 19,1 C 8,5 km/h (2 Bft)
23.09.2016 15:00 21,3 C 18,2 C 46 % 54 % 1024,8 hPa 0,0 l/m 1,1 km/h (0 Bft) S 0,67 h 1,5 UV-I 243 W/m 8,8 C 18,2 C 3,2 km/h (1 Bft)
23.09.2016 16:00 21,3 C 18,7 C 46 % 52 % 1024,7 hPa 0,0 l/m 2,1 km/h (1 Bft) W-SW 0,82 h 1,1 UV-I 231 W/m 8,6 C 18,7 C 4,9 km/h (1 Bft)
23.09.2016 17:00 21,2 C 17,5 C 46 % 59 % 1024,8 hPa 0,0 l/m 0,3 km/h (0 Bft) W 0,03 h 0,7 UV-I 71 W/m 9,2 C 17,5 C 0,6 km/h (0 Bft)
23.09.2016 18:00 21,2 C 15,7 C 47 % 71 % 1025,0 hPa 0,0 l/m 0,0 km/h (0 Bft) N 0,00 h 0,0 UV-I 23 W/m 10,3 C 15,7 C 0,0 km/h (0 Bft)
23.09.2016 19:00 21,2 C 14,5 C 47 % 77 % 1025,5 hPa 0,0 l/m 0,0 km/h (0 Bft) N 0,00 h 0,0 UV-I 5 W/m 10,5 C 14,5 C 0,0 km/h (0 Bft)
23.09.2016 20:00 21,2 C 12,7 C 47 % 82 % 1025,9 hPa 0,0 l/m 0,0 km/h (0 Bft) N 0,00 h 0,0 UV-I 0 W/m 9,7 C 12,7 C 0,0 km/h (0 Bft)
23.09.2016 21:00 21,2 C 11,2 C 48 % 85 % 1026,3 hPa 0,0 l/m 0,0 km/h (0 Bft) N 0,00 h 0,0 UV-I 0 W/m 8,7 C 11,2 C 0,0 km/h (0 Bft)
23.09.2016 22:00 21,2 C 9,9 C 48 % 88 % 1026,6 hPa 0,0 l/m 0,0 km/h (0 Bft) N 0,00 h 0,0 UV-I 0 W/m 8,0 C 9,9 C 0,0 km/h (0 Bft)
23.09.2016 23:00 21,2 C 8,8 C 48 % 90 % 1026,8 hPa 0,0 l/m 0,0 km/h (0 Bft) N 0,00 h 0,0 UV-I 0 W/m 7,2 C 8,8 C 0,0 km/h (0 Bft)
24.09.2016 00:00 21,2 C 8,1 C 48 % 91 % 1026,8 hPa 0,0 l/m 0,0 km/h (0 Bft) N 0,00 h 0,0 UV-I 0 W/m 6,7 C 8,1 C 0,0 km/h (0 Bft)
24.09.2016 01:00 21,2 C 7,3 C 48 % 91 % 1027,0 hPa 0,0 l/m 0,0 km/h (0 Bft) N 0,00 h 0,0 UV-I 0 W/m 5,9 C 7,3 C 0,0 km/h (0 Bft)
24.09.2016 02:00 21,4 C 6,5 C 48 % 91 % 1026,7 hPa 0,0 l/m 0,0 km/h (0 Bft) N 0,00 h 0,0 UV-I 0 W/m 5,3 C 6,5 C 0,0 km/h (0 Bft)
24.09.2016 03:00 21,3 C 6,1 C 48 % 92 % 1026,7 hPa 0,0 l/m 0,0 km/h (0 Bft) N 0,00 h 0,0 UV-I 0 W/m 4,9 C 6,1 C 0,0 km/h (0 Bft)
24.09.2016 04:00 21,3 C 5,5 C 48 % 92 % 1026,9 hPa 0,0 l/m 0,0 km/h (0 Bft) N 0,00 h 0,0 UV-I 0 W/m 4,4 C 5,5 C 0,0 km/h (0 Bft)
24.09.2016 05:00 21,2 C 5,1 C 48 % 93 % 1026,7 hPa 0,0 l/m 0,0 km/h (0 Bft) N 0,00 h 0,0 UV-I 0 W/m 4,0 C 5,1 C 0,0 km/h (0 Bft)
24.09.2016 06:00 21,2 C 4,7 C 49 % 93 % 1026,8 hPa 0,0 l/m 0,0 km/h (0 Bft) N 0,00 h 0,0 UV-I 0 W/m 3,7 C 4,7 C 0,0 km/h (0 Bft)
24.09.2016 07:00 21,2 C 4,3 C 49 % 93 % 1027,2 hPa 0,0 l/m 0,0 km/h (0 Bft) N 0,00 h 0,0 UV-I 24 W/m 3,4 C 4,3 C 0,0 km/h (0 Bft)
24.09.2016 08:00 21,3 C 5,2 C 49 % 95 % 1027,6 hPa 0,0 l/m 0,0 km/h (0 Bft) N 0,07 h 0,5 UV-I 96 W/m 4,5 C 5,2 C 0,0 km/h (0 Bft)
24.09.2016 09:00 21,6 C 9,7 C 50 % 91 % 1027,5 hPa 0,0 l/m 0,0 km/h (0 Bft) N 1,00 h 1,0 UV-I 285 W/m 8,3 C 9,7 C 0,0 km/h (0 Bft)
24.09.2016 10:00 21,4 C 14,4 C 49 % 78 % 1027,5 hPa 0,0 l/m 0,0 km/h (0 Bft) N 1,00 h 2,0 UV-I 469 W/m 10,6 C 14,4 C 0,0 km/h (0 Bft)
24.09.2016 11:00 21,2 C 17,1 C 50 % 69 % 1027,2 hPa 0,0 l/m 0,0 km/h (0 Bft) N 1,00 h 2,9 UV-I 559 W/m 11,4 C 17,1 C 0,0 km/h (0 Bft)
24.09.2016 12:00 21,5 C 19,4 C 50 % 58 % 1026,9 hPa 0,0 l/m 1,6 km/h (1 Bft) SW 0,95 h 3,4 UV-I 567 W/m 10,7 C 19,4 C 2,9 km/h (1 Bft)
24.09.2016 13:00 21,7 C 19,9 C 50 % 53 % 1026,2 hPa 0,0 l/m 0,9 km/h (0 Bft) S 0,93 h 3,3 UV-I 546 W/m 10,0 C 19,9 C 2,5 km/h (1 Bft)
24.09.2016 14:00 21,8 C 19,8 C 49 % 49 % 1025,7 hPa 0,0 l/m 0,3 km/h (0 Bft) W-SW 0,80 h 2,8 UV-I 451 W/m 8,7 C 19,8 C 1,1 km/h (1 Bft)
24.09.2016 15:00 21,9 C 20,4 C 49 % 47 % 1025,2 hPa 0,0 l/m 1,0 km/h (0 Bft) W 1,00 h 2,1 UV-I 452 W/m 8,7 C 20,4 C 2,5 km/h (1 Bft)
24.09.2016 16:00 22,1 C 20,0 C 50 % 46 % 1024,8 hPa 0,0 l/m 0,4 km/h (0 Bft) S 1,00 h 1,2 UV-I 322 W/m 8,0 C 20,0 C 1,4 km/h (1 Bft)
24.09.2016 17:00 22,0 C 19,5 C 49 % 46 % 1024,5 hPa 0,0 l/m 0,0 km/h (0 Bft) N 0,62 h 0,6 UV-I 165 W/m 7,6 C 19,5 C 0,1 km/h (0 Bft)
24.09.2016 18:00 21,8 C 18,0 C 47 % 55 % 1024,2 hPa 0,0 l/m 0,0 km/h (0 Bft) N 0,00 h 0,0 UV-I 33 W/m 8,8 C 18,0 C 0,0 km/h (0 Bft)
24.09.2016 19:00 21,5 C 15,9 C 50 % 70 % 1024,0 hPa 0,0 l/m 0,0 km/h (0 Bft) N 0,00 h 0,0 UV-I 5 W/m 10,3 C 15,9 C 0,0 km/h (0 Bft)
24.09.2016 20:00 22,0 C 13,2 C 51 % 79 % 1024,1 hPa 0,0 l/m 0,0 km/h (0 Bft) N 0,00 h 0,0 UV-I 0 W/m 9,6 C 13,2 C 0,0 km/h (0 Bft)
24.09.2016 21:00 22,2 C 11,4 C 51 % 84 % 1024,3 hPa 0,0 l/m 0,0 km/h (0 Bft) N 0,00 h 0,0 UV-I 0 W/m 8,9 C 11,4 C 0,0 km/h (0 Bft)
24.09.2016 22:00 22,2 C 10,2 C 51 % 87 % 1024,2 hPa 0,0 l/m 0,0 km/h (0 Bft) N 0,00 h 0,0 UV-I 0 W/m 8,1 C 10,2 C 0,0 km/h (0 Bft)
24.09.2016 23:00 21,9 C 9,1 C 51 % 88 % 1023,9 hPa 0,0 l/m 0,0 km/h (0 Bft) N 0,00 h 0,0 UV-I 0 W/m 7,2 C 9,1 C 0,0 km/h (0 Bft)
25.09.2016 00:00 21,8 C 8,2 C 51 % 89 % 1023,6 hPa 0,0 l/m 0,0 km/h (0 Bft) N 0,00 h 0,0 UV-I 0 W/m 6,6 C 8,2 C 0,0 km/h (0 Bft)
25.09.2016 01:00 21,7 C 7,6 C 52 % 90 % 1023,4 hPa 0,0 l/m 0,0 km/h (0 Bft) N 0,00 h 0,0 UV-I 0 W/m 6,1 C 7,6 C 0,0 km/h (0 Bft)
25.09.2016 02:00 21,7 C 7,1 C 52 % 91 % 1023,5 hPa 0,0 l/m 0,0 km/h (0 Bft) N 0,00 h 0,0 UV-I 0 W/m 5,8 C 7,1 C 0,0 km/h (0 Bft)
25.09.2016 03:00 21,7 C 6,7 C 52 % 92 % 1023,4 hPa 0,0 l/m 0,0 km/h (0 Bft) N 0,00 h 0,0 UV-I 0 W/m 5,4 C 6,7 C 0,0 km/h (0 Bft)
25.09.2016 04:00 21,7 C 6,1 C 52 % 92 % 1023,1 hPa 0,0 l/m 0,0 km/h (0 Bft) N 0,00 h 0,0 UV-I 0 W/m 4,9 C 6,1 C 0,0 km/h (0 Bft)
25.09.2016 05:00 21,7 C 5,5 C 53 % 92 % 1022,9 hPa 0,0 l/m 0,0 km/h (0 Bft) N 0,00 h 0,0 UV-I 0 W/m 4,3 C 5,5 C 0,0 km/h (0 Bft)
25.09.2016 06:00 21,6 C 4,9 C 53 % 92 % 1022,7 hPa 0,0 l/m 0,0 km/h (0 Bft) N 0,00 h 0,0 UV-I 0 W/m 3,7 C 4,9 C 0,0 km/h (0 Bft)
25.09.2016 07:00 21,7 C 4,6 C 53 % 93 % 1022,6 hPa 0,0 l/m 0,0 km/h (0 Bft) N 0,00 h 0,0 UV-I 24 W/m 3,6 C 4,6 C 0,0 km/h (0 Bft)
25.09.2016 08:00 21,7 C 6,0 C 53 % 95 % 1022,4 hPa 0,0 l/m 0,0 km/h (0 Bft) N 0,47 h 0,6 UV-I 149 W/m 5,2 C 6,0 C 0,0 km/h (0 Bft)
25.09.2016 09:00 22,0 C 12,5 C 54 % 86 % 1022,3 hPa 0,0 l/m 0,0 km/h (0 Bft) N 1,00 h 1,2 UV-I 357 W/m 10,2 C 12,5 C 0,0 km/h (0 Bft)
25.09.2016 10:00 22,3 C 17,1 C 54 % 67 % 1021,9 hPa 0,0 l/m 1,2 km/h (1 Bft) O-SO 1,00 h 2,2 UV-I 507 W/m 10,9 C 17,0 C 3,3 km/h (1 Bft)
25.09.2016 11:00 22,4 C 19,2 C 56 % 58 % 1021,4 hPa 0,0 l/m 1,0 km/h (0 Bft) O-SO 1,00 h 2,7 UV-I 560 W/m 10,7 C 19,2 C 4,1 km/h (1 Bft)
25.09.2016 12:00 22,4 C 20,3 C 55 % 55 % 1021,0 hPa 0,0 l/m 0,9 km/h (0 Bft) SO 1,00 h 3,5 UV-I 622 W/m 11,1 C 20,3 C 3,3 km/h (1 Bft)
25.09.2016 13:00 22,4 C 21,2 C 54 % 54 % 1020,5 hPa 0,0 l/m 0,4 km/h (0 Bft) O 1,00 h 3,5 UV-I 610 W/m 11,4 C 21,2 C 1,7 km/h (1 Bft)
25.09.2016 14:00 22,4 C 21,0 C 54 % 53 % 1019,9 hPa 0,0 l/m 1,8 km/h (1 Bft) O-SO 1,00 h 2,9 UV-I 536 W/m 10,9 C 20,9 C 6,0 km/h (2 Bft)
25.09.2016 15:00 22,5 C 20,6 C 54 % 52 % 1019,7 hPa 0,0 l/m 2,2 km/h (1 Bft) O 1,00 h 2,1 UV-I 467 W/m 10,4 C 20,6 C 4,6 km/h (1 Bft)
25.09.2016 16:00 22,5 C 20,0 C 53 % 54 % 1019,5 hPa 0,0 l/m 2,4 km/h (1 Bft) SO 1,00 h 1,2 UV-I 304 W/m 10,3 C 20,0 C 6,2 km/h (2 Bft)
25.09.2016 17:00 22,6 C 19,6 C 52 % 55 % 1019,5 hPa 0,0 l/m 1,5 km/h (1 Bft) SO 0,47 h 0,6 UV-I 157 W/m 10,3 C 19,6 C 4,2 km/h (1 Bft)
25.09.2016 18:00 22,5 C 18,5 C 53 % 60 % 1019,6 hPa 0,0 l/m 0,1 km/h (0 Bft) SO 0,00 h 0,0 UV-I 35 W/m 10,6 C 18,5 C 0,6 km/h (0 Bft)
25.09.2016 19:00 22,8 C 17,2 C 54 % 67 % 1019,9 hPa 0,0 l/m 0,0 km/h (0 Bft) N 0,00 h 0,0 UV-I 7 W/m 10,9 C 17,2 C 0,0 km/h (0 Bft)
25.09.2016 20:00 22,7 C 15,3 C 54 % 75 % 1020,2 hPa 0,0 l/m 0,0 km/h (0 Bft) N 0,00 h 0,0 UV-I 0 W/m 10,8 C 15,3 C 0,0 km/h (0 Bft)
25.09.2016 21:00 22,9 C 13,7 C 55 % 80 % 1020,4 hPa 0,0 l/m 0,0 km/h (0 Bft) N 0,00 h 0,0 UV-I 0 W/m 10,4 C 13,7 C 0,0 km/h (0 Bft)
25.09.2016 22:00 22,7 C 12,2 C 55 % 84 % 1020,5 hPa 0,0 l/m 0,0 km/h (0 Bft) N 0,00 h 0,0 UV-I 0 W/m 9,5 C 12,2 C 0,0 km/h (0 Bft)
25.09.2016 23:00 22,5 C 10,6 C 55 % 87 % 1020,5 hPa 0,0 l/m 0,0 km/h (0 Bft) N 0,00 h 0,0 UV-I 0 W/m 8,5 C 10,6 C 0,0 km/h (0 Bft)
Min-Datum _ 24.09.16 21.09.16 21.09.16 24.09.16 19.09.16 - 19.09.16 - - - - 21.09.16 21.09.16 19.09.16
_ Min-Zeit 11:12 07:23 13:50 16:26 00:00 - 00:00 - - - - 07:01 07:23 00:00
Minimum _ 21,0 C 3,6 C 43 % 42 % 1012,4 hPa - 0,0 km/h (0 Bft) - - - - 2,5 C 3,6 C 0,0 km/h (0 Bft)
Max-Datum _ 19.09.16 25.09.16 25.09.16 19.09.16 24.09.16 19.09.16 19.09.16 - 20.09.16 21.09.16 20.09.16 24.09.16 25.09.16 19.09.16
_ Max-Zeit 00:00 13:14 11:50 05:10 08:18 03:30 11:40 - 13:37 13:20 13:01 11:51 13:14 16:16
Maximum _ 23,2 C 21,7 C 57 % 97 % 1027,8 hPa 0,2 l/m 12,9 km/h
N (3 Bft)
- 0,03 h 4,6 UV-I 891 W/m 12,7 C 21,7 C 20,9 km/h
N-NW (4 Bft)
Durchschnitt _ 21,9 C 11,7 C 49 % 81 % 1020,9 hPa #0,6 l/m 0,6 km/h (0 Bft) N #43:03 h 1,7 UV-I 236 W/m 8,3 C 11,7 C 1,6 km/h (1 Bft)